sensor_id;sensor_type;location;lat;lon;timestamp;P1;durP1;ratioP1;P2;durP2;ratioP2
44145;SDS011;29809;52.432;4.780;2023-08-20T00:02:11;4.20;;;1.83;;
44145;SDS011;29809;52.432;4.780;2023-08-20T00:04:36;3.63;;;1.70;;
44145;SDS011;29809;52.432;4.780;2023-08-20T00:07:02;4.03;;;1.40;;
44145;SDS011;29809;52.432;4.780;2023-08-20T00:09:27;4.70;;;1.90;;
44145;SDS011;29809;52.432;4.780;2023-08-20T00:11:53;6.80;;;1.60;;
44145;SDS011;29809;52.432;4.780;2023-08-20T00:14:18;5.05;;;1.65;;
44145;SDS011;29809;52.432;4.780;2023-08-20T00:16:43;4.38;;;1.50;;
44145;SDS011;29809;52.432;4.780;2023-08-20T00:19:09;7.50;;;1.65;;
44145;SDS011;29809;52.432;4.780;2023-08-20T00:21:38;3.10;;;1.48;;
44145;SDS011;29809;52.432;4.780;2023-08-20T00:24:04;5.25;;;2.00;;
44145;SDS011;29809;52.432;4.780;2023-08-20T00:26:30;3.50;;;1.45;;
44145;SDS011;29809;52.432;4.780;2023-08-20T00:28:55;2.80;;;1.30;;
44145;SDS011;29809;52.432;4.780;2023-08-20T00:31:20;5.63;;;1.70;;
44145;SDS011;29809;52.432;4.780;2023-08-20T00:33:45;3.63;;;1.80;;
44145;SDS011;29809;52.432;4.780;2023-08-20T00:36:11;6.72;;;1.88;;
44145;SDS011;29809;52.432;4.780;2023-08-20T00:38:36;5.47;;;2.28;;
44145;SDS011;29809;52.432;4.780;2023-08-20T00:41:01;2.90;;;1.42;;
44145;SDS011;29809;52.432;4.780;2023-08-20T00:43:26;4.30;;;1.85;;
44145;SDS011;29809;52.432;4.780;2023-08-20T00:45:52;5.13;;;1.92;;
44145;SDS011;29809;52.432;4.780;2023-08-20T00:48:17;5.50;;;1.70;;
44145;SDS011;29809;52.432;4.780;2023-08-20T00:50:43;4.68;;;2.10;;
44145;SDS011;29809;52.432;4.780;2023-08-20T00:53:09;5.30;;;1.77;;
44145;SDS011;29809;52.432;4.780;2023-08-20T00:55:35;7.03;;;1.90;;
44145;SDS011;29809;52.432;4.780;2023-08-20T00:58:01;5.15;;;1.45;;
44145;SDS011;29809;52.432;4.780;2023-08-20T01:00:26;4.05;;;1.40;;
44145;SDS011;29809;52.432;4.780;2023-08-20T01:02:51;3.95;;;1.48;;
44145;SDS011;29809;52.432;4.780;2023-08-20T01:05:18;4.63;;;1.40;;
44145;SDS011;29809;52.432;4.780;2023-08-20T01:10:23;3.45;;;1.70;;
44145;SDS011;29809;52.432;4.780;2023-08-20T01:12:50;5.32;;;1.50;;
44145;SDS011;29809;52.432;4.780;2023-08-20T01:15:16;4.00;;;1.48;;
44145;SDS011;29809;52.432;4.780;2023-08-20T01:17:41;6.95;;;1.95;;
44145;SDS011;29809;52.432;4.780;2023-08-20T01:20:07;5.82;;;1.70;;
44145;SDS011;29809;52.432;4.780;2023-08-20T01:25:04;4.60;;;1.45;;
44145;SDS011;29809;52.432;4.780;2023-08-20T01:27:52;5.75;;;1.60;;
44145;SDS011;29809;52.432;4.780;2023-08-20T01:30:23;3.80;;;1.55;;
44145;SDS011;29809;52.432;4.780;2023-08-20T01:32:50;9.27;;;1.42;;
44145;SDS011;29809;52.432;4.780;2023-08-20T01:35:16;7.03;;;1.80;;
44145;SDS011;29809;52.432;4.780;2023-08-20T01:37:41;3.72;;;1.55;;
44145;SDS011;29809;52.432;4.780;2023-08-20T01:40:07;6.35;;;1.80;;
44145;SDS011;29809;52.432;4.780;2023-08-20T01:42:35;5.60;;;1.75;;
44145;SDS011;29809;52.432;4.780;2023-08-20T01:45:00;3.72;;;1.83;;
44145;SDS011;29809;52.432;4.780;2023-08-20T01:47:25;9.52;;;2.65;;
44145;SDS011;29809;52.432;4.780;2023-08-20T01:49:51;5.63;;;1.67;;
44145;SDS011;29809;52.432;4.780;2023-08-20T01:52:16;7.13;;;2.28;;
44145;SDS011;29809;52.432;4.780;2023-08-20T01:54:41;5.68;;;2.00;;
44145;SDS011;29809;52.432;4.780;2023-08-20T01:57:06;6.28;;;1.83;;
44145;SDS011;29809;52.432;4.780;2023-08-20T01:59:32;6.70;;;1.90;;
44145;SDS011;29809;52.432;4.780;2023-08-20T02:01:57;4.32;;;1.70;;
44145;SDS011;29809;52.432;4.780;2023-08-20T02:04:22;5.07;;;1.80;;
44145;SDS011;29809;52.432;4.780;2023-08-20T02:06:47;5.53;;;2.20;;
44145;SDS011;29809;52.432;4.780;2023-08-20T02:09:13;4.43;;;1.70;;
44145;SDS011;29809;52.432;4.780;2023-08-20T02:11:38;5.45;;;2.03;;
44145;SDS011;29809;52.432;4.780;2023-08-20T02:14:03;6.10;;;1.60;;
44145;SDS011;29809;52.432;4.780;2023-08-20T02:16:29;4.38;;;1.75;;
44145;SDS011;29809;52.432;4.780;2023-08-20T02:18:54;6.18;;;1.63;;
44145;SDS011;29809;52.432;4.780;2023-08-20T02:21:19;4.85;;;2.17;;
44145;SDS011;29809;52.432;4.780;2023-08-20T02:23:44;5.43;;;1.80;;
44145;SDS011;29809;52.432;4.780;2023-08-20T02:26:10;3.78;;;1.83;;
44145;SDS011;29809;52.432;4.780;2023-08-20T02:28:35;4.20;;;1.88;;
44145;SDS011;29809;52.432;4.780;2023-08-20T02:31:03;2.65;;;1.83;;
44145;SDS011;29809;52.432;4.780;2023-08-20T02:33:28;4.32;;;1.80;;
44145;SDS011;29809;52.432;4.780;2023-08-20T02:35:53;2.95;;;1.52;;
44145;SDS011;29809;52.432;4.780;2023-08-20T02:38:19;4.53;;;1.42;;
44145;SDS011;29809;52.432;4.780;2023-08-20T02:40:44;5.97;;;2.05;;
44145;SDS011;29809;52.432;4.780;2023-08-20T02:43:09;4.70;;;1.80;;
44145;SDS011;29809;52.432;4.780;2023-08-20T02:45:41;5.30;;;2.20;;
44145;SDS011;29809;52.432;4.780;2023-08-20T02:48:07;4.40;;;2.05;;
44145;SDS011;29809;52.432;4.780;2023-08-20T02:50:32;4.78;;;2.03;;
44145;SDS011;29809;52.432;4.780;2023-08-20T02:52:57;5.85;;;2.22;;
44145;SDS011;29809;52.432;4.780;2023-08-20T02:55:23;5.50;;;2.28;;
44145;SDS011;29809;52.432;4.780;2023-08-20T02:57:48;3.42;;;1.63;;
44145;SDS011;29809;52.432;4.780;2023-08-20T03:00:13;5.45;;;2.42;;
44145;SDS011;29809;52.432;4.780;2023-08-20T03:02:38;5.88;;;2.35;;
44145;SDS011;29809;52.432;4.780;2023-08-20T03:05:06;5.20;;;1.75;;
44145;SDS011;29809;52.432;4.780;2023-08-20T03:07:32;3.60;;;1.40;;
44145;SDS011;29809;52.432;4.780;2023-08-20T03:09:57;4.43;;;2.17;;
44145;SDS011;29809;52.432;4.780;2023-08-20T03:12:22;4.07;;;1.70;;
44145;SDS011;29809;52.432;4.780;2023-08-20T03:14:47;4.20;;;1.90;;
44145;SDS011;29809;52.432;4.780;2023-08-20T03:17:13;4.50;;;1.80;;
44145;SDS011;29809;52.432;4.780;2023-08-20T03:19:46;5.45;;;2.10;;
44145;SDS011;29809;52.432;4.780;2023-08-20T03:22:18;4.07;;;2.15;;
44145;SDS011;29809;52.432;4.780;2023-08-20T03:24:43;5.65;;;2.00;;
44145;SDS011;29809;52.432;4.780;2023-08-20T03:27:08;6.90;;;2.30;;
44145;SDS011;29809;52.432;4.780;2023-08-20T03:29:33;6.80;;;1.73;;
44145;SDS011;29809;52.432;4.780;2023-08-20T03:31:59;6.07;;;2.15;;
44145;SDS011;29809;52.432;4.780;2023-08-20T03:34:24;9.93;;;2.67;;
44145;SDS011;29809;52.432;4.780;2023-08-20T03:36:49;6.97;;;2.20;;
44145;SDS011;29809;52.432;4.780;2023-08-20T03:39:14;4.60;;;1.92;;
44145;SDS011;29809;52.432;4.780;2023-08-20T03:41:40;3.33;;;1.48;;
44145;SDS011;29809;52.432;4.780;2023-08-20T03:44:05;7.30;;;1.98;;
44145;SDS011;29809;52.432;4.780;2023-08-20T03:46:30;2.70;;;1.50;;
44145;SDS011;29809;52.432;4.780;2023-08-20T03:48:56;5.57;;;2.15;;
44145;SDS011;29809;52.432;4.780;2023-08-20T03:51:21;6.82;;;2.05;;
44145;SDS011;29809;52.432;4.780;2023-08-20T03:53:46;4.38;;;1.52;;
44145;SDS011;29809;52.432;4.780;2023-08-20T03:56:11;3.60;;;2.10;;
44145;SDS011;29809;52.432;4.780;2023-08-20T03:58:37;6.25;;;1.75;;
44145;SDS011;29809;52.432;4.780;2023-08-20T04:01:02;5.68;;;1.70;;
44145;SDS011;29809;52.432;4.780;2023-08-20T04:03:28;4.40;;;1.40;;
44145;SDS011;29809;52.432;4.780;2023-08-20T04:05:54;3.70;;;1.50;;
44145;SDS011;29809;52.432;4.780;2023-08-20T04:08:19;4.07;;;1.67;;
44145;SDS011;29809;52.432;4.780;2023-08-20T04:10:44;3.72;;;1.40;;
44145;SDS011;29809;52.432;4.780;2023-08-20T04:13:10;5.03;;;1.48;;
44145;SDS011;29809;52.432;4.780;2023-08-20T04:15:36;4.13;;;1.75;;
44145;SDS011;29809;52.432;4.780;2023-08-20T04:18:02;6.63;;;1.80;;
44145;SDS011;29809;52.432;4.780;2023-08-20T04:20:27;4.68;;;1.73;;
44145;SDS011;29809;52.432;4.780;2023-08-20T04:22:52;4.35;;;2.00;;
44145;SDS011;29809;52.432;4.780;2023-08-20T04:25:17;4.50;;;1.33;;
44145;SDS011;29809;52.432;4.780;2023-08-20T04:27:43;5.68;;;1.92;;
44145;SDS011;29809;52.432;4.780;2023-08-20T04:30:08;4.70;;;1.83;;
44145;SDS011;29809;52.432;4.780;2023-08-20T04:32:34;4.90;;;2.13;;
44145;SDS011;29809;52.432;4.780;2023-08-20T04:34:59;2.55;;;1.30;;
44145;SDS011;29809;52.432;4.780;2023-08-20T04:37:24;4.38;;;2.03;;
44145;SDS011;29809;52.432;4.780;2023-08-20T04:39:50;8.50;;;2.00;;
44145;SDS011;29809;52.432;4.780;2023-08-20T04:42:15;8.07;;;2.22;;
44145;SDS011;29809;52.432;4.780;2023-08-20T04:44:40;4.72;;;1.92;;
44145;SDS011;29809;52.432;4.780;2023-08-20T04:47:05;4.30;;;1.73;;
44145;SDS011;29809;52.432;4.780;2023-08-20T04:49:31;4.63;;;1.55;;
44145;SDS011;29809;52.432;4.780;2023-08-20T04:51:56;1.95;;;1.02;;
44145;SDS011;29809;52.432;4.780;2023-08-20T04:54:21;7.07;;;1.75;;
44145;SDS011;29809;52.432;4.780;2023-08-20T04:56:46;3.35;;;1.73;;
44145;SDS011;29809;52.432;4.780;2023-08-20T04:59:12;5.03;;;1.77;;
44145;SDS011;29809;52.432;4.780;2023-08-20T05:01:38;3.90;;;1.67;;
44145;SDS011;29809;52.432;4.780;2023-08-20T05:04:03;2.17;;;1.35;;
44145;SDS011;29809;52.432;4.780;2023-08-20T05:06:28;6.85;;;2.00;;
44145;SDS011;29809;52.432;4.780;2023-08-20T05:08:53;3.53;;;1.70;;
44145;SDS011;29809;52.432;4.780;2023-08-20T05:11:19;7.03;;;2.15;;
44145;SDS011;29809;52.432;4.780;2023-08-20T05:13:45;6.68;;;2.25;;
44145;SDS011;29809;52.432;4.780;2023-08-20T05:16:10;5.38;;;2.53;;
44145;SDS011;29809;52.432;4.780;2023-08-20T05:18:35;5.35;;;2.15;;
44145;SDS011;29809;52.432;4.780;2023-08-20T05:21:01;4.55;;;1.83;;
44145;SDS011;29809;52.432;4.780;2023-08-20T05:23:26;3.80;;;2.10;;
44145;SDS011;29809;52.432;4.780;2023-08-20T05:25:51;7.85;;;2.22;;
44145;SDS011;29809;52.432;4.780;2023-08-20T05:28:16;5.38;;;2.22;;
44145;SDS011;29809;52.432;4.780;2023-08-20T05:30:41;4.80;;;2.00;;
44145;SDS011;29809;52.432;4.780;2023-08-20T05:33:07;6.30;;;1.85;;
44145;SDS011;29809;52.432;4.780;2023-08-20T05:35:32;10.00;;;2.60;;
44145;SDS011;29809;52.432;4.780;2023-08-20T05:37:57;7.88;;;1.90;;
44145;SDS011;29809;52.432;4.780;2023-08-20T05:40:23;5.18;;;1.70;;
44145;SDS011;29809;52.432;4.780;2023-08-20T05:42:48;6.80;;;1.80;;
44145;SDS011;29809;52.432;4.780;2023-08-20T05:45:13;6.55;;;2.17;;
44145;SDS011;29809;52.432;4.780;2023-08-20T05:47:38;4.93;;;1.67;;
44145;SDS011;29809;52.432;4.780;2023-08-20T05:50:04;5.38;;;1.65;;
44145;SDS011;29809;52.432;4.780;2023-08-20T05:52:29;3.25;;;1.50;;
44145;SDS011;29809;52.432;4.780;2023-08-20T05:54:54;4.38;;;1.92;;
44145;SDS011;29809;52.432;4.780;2023-08-20T05:57:19;3.50;;;1.30;;
44145;SDS011;29809;52.432;4.780;2023-08-20T05:59:45;6.10;;;1.88;;
44145;SDS011;29809;52.432;4.780;2023-08-20T06:02:10;4.45;;;1.75;;
44145;SDS011;29809;52.432;4.780;2023-08-20T06:04:35;4.53;;;1.90;;
44145;SDS011;29809;52.432;4.780;2023-08-20T06:07:00;5.93;;;1.40;;
44145;SDS011;29809;52.432;4.780;2023-08-20T06:09:26;4.20;;;1.60;;
44145;SDS011;29809;52.432;4.780;2023-08-20T06:11:51;8.00;;;2.30;;
44145;SDS011;29809;52.432;4.780;2023-08-20T06:14:16;4.70;;;1.63;;
44145;SDS011;29809;52.432;4.780;2023-08-20T06:16:42;6.35;;;2.15;;
44145;SDS011;29809;52.432;4.780;2023-08-20T06:19:07;3.97;;;2.05;;
44145;SDS011;29809;52.432;4.780;2023-08-20T06:21:32;6.28;;;2.22;;
44145;SDS011;29809;52.432;4.780;2023-08-20T06:23:58;4.47;;;1.75;;
44145;SDS011;29809;52.432;4.780;2023-08-20T06:26:23;4.22;;;1.98;;
44145;SDS011;29809;52.432;4.780;2023-08-20T06:28:48;7.32;;;1.67;;
44145;SDS011;29809;52.432;4.780;2023-08-20T06:31:13;6.25;;;1.90;;
44145;SDS011;29809;52.432;4.780;2023-08-20T06:33:39;6.00;;;1.67;;
44145;SDS011;29809;52.432;4.780;2023-08-20T06:36:04;13.15;;;3.70;;
44145;SDS011;29809;52.432;4.780;2023-08-20T06:38:29;54.72;;;18.20;;
44145;SDS011;29809;52.432;4.780;2023-08-20T06:40:55;40.70;;;12.20;;
44145;SDS011;29809;52.432;4.780;2023-08-20T06:43:20;23.00;;;6.90;;
44145;SDS011;29809;52.432;4.780;2023-08-20T06:45:45;15.25;;;4.07;;
44145;SDS011;29809;52.432;4.780;2023-08-20T06:48:11;7.82;;;2.88;;
44145;SDS011;29809;52.432;4.780;2023-08-20T06:50:36;9.93;;;2.47;;
44145;SDS011;29809;52.432;4.780;2023-08-20T06:53:01;7.43;;;2.28;;
44145;SDS011;29809;52.432;4.780;2023-08-20T06:55:26;9.18;;;2.30;;
44145;SDS011;29809;52.432;4.780;2023-08-20T06:57:52;9.23;;;2.13;;
44145;SDS011;29809;52.432;4.780;2023-08-20T07:00:17;5.78;;;2.40;;
44145;SDS011;29809;52.432;4.780;2023-08-20T07:02:44;5.32;;;1.80;;
44145;SDS011;29809;52.432;4.780;2023-08-20T07:05:09;6.47;;;1.88;;
44145;SDS011;29809;52.432;4.780;2023-08-20T07:07:35;6.50;;;1.85;;
44145;SDS011;29809;52.432;4.780;2023-08-20T07:10:00;6.93;;;1.60;;
44145;SDS011;29809;52.432;4.780;2023-08-20T07:12:25;8.55;;;2.60;;
44145;SDS011;29809;52.432;4.780;2023-08-20T07:14:50;5.57;;;1.58;;
44145;SDS011;29809;52.432;4.780;2023-08-20T07:17:16;9.27;;;1.70;;
44145;SDS011;29809;52.432;4.780;2023-08-20T07:19:41;10.43;;;1.92;;
44145;SDS011;29809;52.432;4.780;2023-08-20T07:22:06;8.95;;;1.92;;
44145;SDS011;29809;52.432;4.780;2023-08-20T07:24:31;8.15;;;2.25;;
44145;SDS011;29809;52.432;4.780;2023-08-20T07:27:00;7.50;;;2.05;;
44145;SDS011;29809;52.432;4.780;2023-08-20T07:29:26;5.25;;;1.70;;
44145;SDS011;29809;52.432;4.780;2023-08-20T07:31:55;6.75;;;1.50;;
44145;SDS011;29809;52.432;4.780;2023-08-20T07:34:20;4.20;;;1.35;;
44145;SDS011;29809;52.432;4.780;2023-08-20T07:36:46;7.30;;;2.25;;
44145;SDS011;29809;52.432;4.780;2023-08-20T07:39:12;7.63;;;1.52;;
44145;SDS011;29809;52.432;4.780;2023-08-20T07:41:37;6.80;;;1.70;;
44145;SDS011;29809;52.432;4.780;2023-08-20T07:44:02;6.70;;;1.48;;
44145;SDS011;29809;52.432;4.780;2023-08-20T07:46:28;8.52;;;1.85;;
44145;SDS011;29809;52.432;4.780;2023-08-20T07:48:53;8.90;;;2.00;;
44145;SDS011;29809;52.432;4.780;2023-08-20T07:51:19;6.75;;;1.77;;
44145;SDS011;29809;52.432;4.780;2023-08-20T07:53:44;6.60;;;1.90;;
44145;SDS011;29809;52.432;4.780;2023-08-20T07:56:10;6.18;;;1.63;;
44145;SDS011;29809;52.432;4.780;2023-08-20T07:58:35;5.55;;;1.92;;
44145;SDS011;29809;52.432;4.780;2023-08-20T08:01:00;6.40;;;2.10;;
44145;SDS011;29809;52.432;4.780;2023-08-20T08:03:26;11.48;;;1.75;;
44145;SDS011;29809;52.432;4.780;2023-08-20T08:05:54;6.40;;;1.52;;
44145;SDS011;29809;52.432;4.780;2023-08-20T08:08:20;5.97;;;1.50;;
44145;SDS011;29809;52.432;4.780;2023-08-20T08:10:53;5.55;;;2.25;;
44145;SDS011;29809;52.432;4.780;2023-08-20T08:13:19;6.13;;;1.50;;
44145;SDS011;29809;52.432;4.780;2023-08-20T08:15:45;6.28;;;1.77;;
44145;SDS011;29809;52.432;4.780;2023-08-20T08:18:11;4.40;;;1.27;;
44145;SDS011;29809;52.432;4.780;2023-08-20T08:20:36;5.93;;;1.60;;
44145;SDS011;29809;52.432;4.780;2023-08-20T08:23:02;6.18;;;1.65;;
44145;SDS011;29809;52.432;4.780;2023-08-20T08:25:28;5.50;;;1.85;;
44145;SDS011;29809;52.432;4.780;2023-08-20T08:27:53;5.68;;;1.48;;
44145;SDS011;29809;52.432;4.780;2023-08-20T08:30:18;5.38;;;1.48;;
44145;SDS011;29809;52.432;4.780;2023-08-20T08:32:44;4.80;;;1.50;;
44145;SDS011;29809;52.432;4.780;2023-08-20T08:35:09;7.38;;;1.67;;
44145;SDS011;29809;52.432;4.780;2023-08-20T08:37:34;5.00;;;1.38;;
44145;SDS011;29809;52.432;4.780;2023-08-20T08:40:00;3.13;;;1.20;;
44145;SDS011;29809;52.432;4.780;2023-08-20T08:42:25;5.97;;;1.70;;
44145;SDS011;29809;52.432;4.780;2023-08-20T08:44:50;5.10;;;1.70;;
44145;SDS011;29809;52.432;4.780;2023-08-20T08:47:16;4.10;;;1.35;;
44145;SDS011;29809;52.432;4.780;2023-08-20T08:49:43;8.20;;;2.22;;
44145;SDS011;29809;52.432;4.780;2023-08-20T08:52:09;7.40;;;2.00;;
44145;SDS011;29809;52.432;4.780;2023-08-20T08:54:35;5.82;;;1.40;;
44145;SDS011;29809;52.432;4.780;2023-08-20T08:57:01;3.92;;;1.23;;
44145;SDS011;29809;52.432;4.780;2023-08-20T08:59:26;5.82;;;1.73;;
44145;SDS011;29809;52.432;4.780;2023-08-20T09:01:51;4.18;;;2.30;;
44145;SDS011;29809;52.432;4.780;2023-08-20T09:04:17;9.02;;;1.88;;
44145;SDS011;29809;52.432;4.780;2023-08-20T09:06:47;6.78;;;1.48;;
44145;SDS011;29809;52.432;4.780;2023-08-20T09:09:13;8.63;;;1.60;;
44145;SDS011;29809;52.432;4.780;2023-08-20T09:11:38;6.03;;;1.40;;
44145;SDS011;29809;52.432;4.780;2023-08-20T09:14:03;8.70;;;2.00;;
44145;SDS011;29809;52.432;4.780;2023-08-20T09:16:29;7.47;;;1.58;;
44145;SDS011;29809;52.432;4.780;2023-08-20T09:18:57;6.35;;;1.52;;
44145;SDS011;29809;52.432;4.780;2023-08-20T09:21:24;4.53;;;1.35;;
44145;SDS011;29809;52.432;4.780;2023-08-20T09:23:53;5.85;;;1.98;;
44145;SDS011;29809;52.432;4.780;2023-08-20T09:26:18;3.95;;;1.40;;
44145;SDS011;29809;52.432;4.780;2023-08-20T09:28:45;4.13;;;1.67;;
44145;SDS011;29809;52.432;4.780;2023-08-20T09:31:11;6.70;;;1.60;;
44145;SDS011;29809;52.432;4.780;2023-08-20T09:33:36;6.40;;;1.75;;
44145;SDS011;29809;52.432;4.780;2023-08-20T09:36:04;6.88;;;1.50;;
44145;SDS011;29809;52.432;4.780;2023-08-20T09:38:30;6.47;;;1.60;;
44145;SDS011;29809;52.432;4.780;2023-08-20T09:41:01;6.03;;;1.75;;
44145;SDS011;29809;52.432;4.780;2023-08-20T09:43:26;4.70;;;1.75;;
44145;SDS011;29809;52.432;4.780;2023-08-20T09:45:53;6.32;;;1.80;;
44145;SDS011;29809;52.432;4.780;2023-08-20T09:48:19;9.07;;;1.67;;
44145;SDS011;29809;52.432;4.780;2023-08-20T09:50:46;6.45;;;2.00;;
44145;SDS011;29809;52.432;4.780;2023-08-20T09:53:27;4.00;;;1.60;;
44145;SDS011;29809;52.432;4.780;2023-08-20T09:55:56;7.75;;;1.88;;
44145;SDS011;29809;52.432;4.780;2023-08-20T09:58:24;5.43;;;1.70;;
44145;SDS011;29809;52.432;4.780;2023-08-20T10:00:51;5.28;;;2.20;;
44145;SDS011;29809;52.432;4.780;2023-08-20T10:03:17;5.85;;;1.30;;
44145;SDS011;29809;52.432;4.780;2023-08-20T10:05:43;4.57;;;1.60;;
44145;SDS011;29809;52.432;4.780;2023-08-20T10:08:08;6.20;;;1.60;;
44145;SDS011;29809;52.432;4.780;2023-08-20T10:10:34;7.43;;;1.80;;
44145;SDS011;29809;52.432;4.780;2023-08-20T10:12:59;5.65;;;1.38;;
44145;SDS011;29809;52.432;4.780;2023-08-20T10:15:25;5.63;;;1.58;;
44145;SDS011;29809;52.432;4.780;2023-08-20T10:17:52;5.03;;;1.80;;
44145;SDS011;29809;52.432;4.780;2023-08-20T10:20:18;5.18;;;1.67;;
44145;SDS011;29809;52.432;4.780;2023-08-20T10:22:44;5.88;;;1.50;;
44145;SDS011;29809;52.432;4.780;2023-08-20T10:25:10;7.38;;;1.92;;
44145;SDS011;29809;52.432;4.780;2023-08-20T10:27:37;5.80;;;2.03;;
44145;SDS011;29809;52.432;4.780;2023-08-20T10:30:16;7.15;;;1.75;;
44145;SDS011;29809;52.432;4.780;2023-08-20T10:32:45;6.97;;;1.80;;
44145;SDS011;29809;52.432;4.780;2023-08-20T10:35:11;7.75;;;1.75;;
44145;SDS011;29809;52.432;4.780;2023-08-20T10:37:37;5.85;;;1.80;;
44145;SDS011;29809;52.432;4.780;2023-08-20T10:40:02;5.72;;;1.70;;
44145;SDS011;29809;52.432;4.780;2023-08-20T10:42:29;8.32;;;1.95;;
44145;SDS011;29809;52.432;4.780;2023-08-20T10:47:23;3.83;;;1.80;;
44145;SDS011;29809;52.432;4.780;2023-08-20T10:49:53;6.68;;;1.65;;
44145;SDS011;29809;52.432;4.780;2023-08-20T10:52:24;6.20;;;2.53;;
44145;SDS011;29809;52.432;4.780;2023-08-20T10:54:50;6.20;;;1.77;;
44145;SDS011;29809;52.432;4.780;2023-08-20T10:57:17;8.30;;;2.22;;
44145;SDS011;29809;52.432;4.780;2023-08-20T10:59:42;7.90;;;1.88;;
44145;SDS011;29809;52.432;4.780;2023-08-20T11:02:10;5.50;;;1.60;;
44145;SDS011;29809;52.432;4.780;2023-08-20T11:04:38;5.45;;;1.75;;
44145;SDS011;29809;52.432;4.780;2023-08-20T11:07:04;7.68;;;2.80;;
44145;SDS011;29809;52.432;4.780;2023-08-20T11:09:30;5.70;;;1.83;;
44145;SDS011;29809;52.432;4.780;2023-08-20T11:11:55;7.45;;;2.00;;
44145;SDS011;29809;52.432;4.780;2023-08-20T11:14:21;5.50;;;1.60;;
44145;SDS011;29809;52.432;4.780;2023-08-20T11:16:47;7.95;;;2.25;;
44145;SDS011;29809;52.432;4.780;2023-08-20T11:19:13;5.28;;;1.65;;
44145;SDS011;29809;52.432;4.780;2023-08-20T11:21:39;7.15;;;2.00;;
44145;SDS011;29809;52.432;4.780;2023-08-20T11:24:05;7.10;;;1.50;;
44145;SDS011;29809;52.432;4.780;2023-08-20T11:26:32;5.45;;;1.70;;
44145;SDS011;29809;52.432;4.780;2023-08-20T11:28:57;4.00;;;1.33;;
44145;SDS011;29809;52.432;4.780;2023-08-20T11:31:23;5.13;;;1.70;;
44145;SDS011;29809;52.432;4.780;2023-08-20T11:33:49;8.25;;;1.90;;
44145;SDS011;29809;52.432;4.780;2023-08-20T11:36:19;5.20;;;1.50;;
44145;SDS011;29809;52.432;4.780;2023-08-20T11:38:51;4.82;;;1.45;;
44145;SDS011;29809;52.432;4.780;2023-08-20T11:41:20;3.58;;;1.30;;
44145;SDS011;29809;52.432;4.780;2023-08-20T11:43:46;5.45;;;1.60;;
44145;SDS011;29809;52.432;4.780;2023-08-20T11:46:15;5.65;;;1.42;;
44145;SDS011;29809;52.432;4.780;2023-08-20T11:51:24;4.18;;;0.98;;
44145;SDS011;29809;52.432;4.780;2023-08-20T11:53:50;2.60;;;1.05;;
44145;SDS011;29809;52.432;4.780;2023-08-20T11:56:15;2.85;;;1.00;;
44145;SDS011;29809;52.432;4.780;2023-08-20T11:58:40;4.50;;;1.40;;
44145;SDS011;29809;52.432;4.780;2023-08-20T12:01:07;5.90;;;1.70;;
44145;SDS011;29809;52.432;4.780;2023-08-20T12:03:34;5.03;;;1.30;;
44145;SDS011;29809;52.432;4.780;2023-08-20T12:05:59;6.88;;;1.27;;
44145;SDS011;29809;52.432;4.780;2023-08-20T12:08:24;3.80;;;1.15;;
44145;SDS011;29809;52.432;4.780;2023-08-20T12:10:49;6.30;;;1.90;;
44145;SDS011;29809;52.432;4.780;2023-08-20T12:13:15;7.30;;;1.90;;
44145;SDS011;29809;52.432;4.780;2023-08-20T12:15:40;3.80;;;1.02;;
44145;SDS011;29809;52.432;4.780;2023-08-20T12:18:05;3.58;;;1.17;;
44145;SDS011;29809;52.432;4.780;2023-08-20T12:20:32;2.50;;;1.00;;
44145;SDS011;29809;52.432;4.780;2023-08-20T12:23:06;5.95;;;1.15;;
44145;SDS011;29809;52.432;4.780;2023-08-20T12:25:32;4.63;;;1.50;;
44145;SDS011;29809;52.432;4.780;2023-08-20T12:27:58;5.25;;;1.10;;
44145;SDS011;29809;52.432;4.780;2023-08-20T12:30:24;3.33;;;1.10;;
44145;SDS011;29809;52.432;4.780;2023-08-20T12:32:49;3.20;;;1.05;;
44145;SDS011;29809;52.432;4.780;2023-08-20T12:35:14;5.93;;;1.52;;
44145;SDS011;29809;52.432;4.780;2023-08-20T12:37:40;6.18;;;1.30;;
44145;SDS011;29809;52.432;4.780;2023-08-20T12:40:05;3.40;;;1.33;;
44145;SDS011;29809;52.432;4.780;2023-08-20T12:42:35;5.90;;;1.20;;
44145;SDS011;29809;52.432;4.780;2023-08-20T12:45:01;3.00;;;1.10;;
44145;SDS011;29809;52.432;4.780;2023-08-20T12:47:26;4.22;;;1.13;;
44145;SDS011;29809;52.432;4.780;2023-08-20T12:49:51;3.83;;;0.90;;
44145;SDS011;29809;52.432;4.780;2023-08-20T12:52:16;2.88;;;1.13;;
44145;SDS011;29809;52.432;4.780;2023-08-20T12:54:42;4.82;;;1.05;;
44145;SDS011;29809;52.432;4.780;2023-08-20T12:57:07;5.57;;;1.85;;
44145;SDS011;29809;52.432;4.780;2023-08-20T12:59:32;2.83;;;1.20;;
44145;SDS011;29809;52.432;4.780;2023-08-20T13:01:57;3.83;;;1.10;;
44145;SDS011;29809;52.432;4.780;2023-08-20T13:04:23;4.45;;;1.15;;
44145;SDS011;29809;52.432;4.780;2023-08-20T13:06:51;2.97;;;0.93;;
44145;SDS011;29809;52.432;4.780;2023-08-20T13:09:17;2.67;;;0.93;;
44145;SDS011;29809;52.432;4.780;2023-08-20T13:11:42;4.88;;;1.42;;
44145;SDS011;29809;52.432;4.780;2023-08-20T13:14:09;3.17;;;1.23;;
44145;SDS011;29809;52.432;4.780;2023-08-20T13:16:35;3.10;;;0.95;;
44145;SDS011;29809;52.432;4.780;2023-08-20T13:19:00;1.80;;;0.95;;
44145;SDS011;29809;52.432;4.780;2023-08-20T13:21:25;3.30;;;1.10;;
44145;SDS011;29809;52.432;4.780;2023-08-20T13:23:51;4.00;;;1.35;;
44145;SDS011;29809;52.432;4.780;2023-08-20T13:26:16;3.03;;;1.13;;
44145;SDS011;29809;52.432;4.780;2023-08-20T13:28:41;4.13;;;1.10;;
44145;SDS011;29809;52.432;4.780;2023-08-20T13:31:07;2.00;;;0.77;;
44145;SDS011;29809;52.432;4.780;2023-08-20T13:33:32;4.30;;;1.10;;
44145;SDS011;29809;52.432;4.780;2023-08-20T13:35:57;2.95;;;0.80;;
44145;SDS011;29809;52.432;4.780;2023-08-20T13:38:23;4.00;;;1.10;;
44145;SDS011;29809;52.432;4.780;2023-08-20T13:40:48;2.53;;;0.90;;
44145;SDS011;29809;52.432;4.780;2023-08-20T13:43:14;2.63;;;0.73;;
44145;SDS011;29809;52.432;4.780;2023-08-20T13:45:39;4.50;;;1.20;;
44145;SDS011;29809;52.432;4.780;2023-08-20T13:48:04;3.70;;;1.08;;
44145;SDS011;29809;52.432;4.780;2023-08-20T13:50:30;3.47;;;0.93;;
44145;SDS011;29809;52.432;4.780;2023-08-20T13:52:55;3.13;;;1.45;;
44145;SDS011;29809;52.432;4.780;2023-08-20T13:55:20;3.10;;;1.02;;
44145;SDS011;29809;52.432;4.780;2023-08-20T13:57:46;4.05;;;1.00;;
44145;SDS011;29809;52.432;4.780;2023-08-20T14:00:11;3.13;;;0.82;;
44145;SDS011;29809;52.432;4.780;2023-08-20T14:02:37;2.17;;;0.70;;
44145;SDS011;29809;52.432;4.780;2023-08-20T14:05:03;3.55;;;0.82;;
44145;SDS011;29809;52.432;4.780;2023-08-20T14:07:32;1.90;;;1.02;;
44145;SDS011;29809;52.432;4.780;2023-08-20T14:10:01;4.22;;;0.95;;
44145;SDS011;29809;52.432;4.780;2023-08-20T14:12:26;2.30;;;0.98;;
44145;SDS011;29809;52.432;4.780;2023-08-20T14:14:52;4.95;;;1.08;;
44145;SDS011;29809;52.432;4.780;2023-08-20T14:17:17;4.53;;;1.77;;
44145;SDS011;29809;52.432;4.780;2023-08-20T14:19:43;3.72;;;1.50;;
44145;SDS011;29809;52.432;4.780;2023-08-20T14:22:08;10.32;;;2.40;;
44145;SDS011;29809;52.432;4.780;2023-08-20T14:24:33;5.70;;;1.27;;
44145;SDS011;29809;52.432;4.780;2023-08-20T14:26:58;3.70;;;1.02;;
44145;SDS011;29809;52.432;4.780;2023-08-20T14:29:24;5.18;;;1.35;;
44145;SDS011;29809;52.432;4.780;2023-08-20T14:31:49;3.78;;;0.90;;
44145;SDS011;29809;52.432;4.780;2023-08-20T14:34:14;3.50;;;1.10;;
44145;SDS011;29809;52.432;4.780;2023-08-20T14:36:40;3.92;;;0.95;;
44145;SDS011;29809;52.432;4.780;2023-08-20T14:39:05;3.40;;;1.05;;
44145;SDS011;29809;52.432;4.780;2023-08-20T14:41:30;2.45;;;0.77;;
44145;SDS011;29809;52.432;4.780;2023-08-20T14:43:56;4.53;;;0.70;;
44145;SDS011;29809;52.432;4.780;2023-08-20T14:46:21;1.95;;;0.70;;
44145;SDS011;29809;52.432;4.780;2023-08-20T14:48:46;3.33;;;0.88;;
44145;SDS011;29809;52.432;4.780;2023-08-20T14:51:12;3.88;;;0.95;;